createdAt,value
2023-11-01T00:02:19.409Z,8.39
2023-11-01T00:07:21.275Z,8.42
2023-11-01T00:12:23.216Z,8.41
2023-11-01T00:17:27.698Z,8.41
2023-11-01T00:22:29.660Z,8.40
2023-11-01T00:27:34.022Z,8.36
2023-11-01T00:32:35.959Z,8.37
2023-11-01T00:37:37.859Z,8.35
2023-11-01T00:42:42.079Z,8.28
2023-11-01T00:47:44.061Z,8.20
2023-11-01T00:52:48.416Z,8.17
2023-11-01T00:57:50.526Z,8.19
2023-11-01T01:02:54.993Z,8.21
2023-11-01T01:07:57.854Z,8.26
2023-11-01T01:13:04.423Z,8.30
2023-11-01T01:18:06.612Z,8.28
2023-11-01T01:23:10.999Z,8.28
2023-11-01T01:28:12.924Z,8.27
2023-11-01T01:33:15.105Z,8.28
2023-11-01T01:38:17.002Z,8.32
2023-11-01T01:43:22.562Z,8.34
2023-11-01T01:48:24.806Z,8.34
2023-11-01T01:53:27.154Z,8.35
2023-11-01T01:58:31.744Z,8.34
2023-11-01T02:03:34.429Z,8.34
2023-11-01T02:08:38.780Z,8.34
2023-11-01T02:13:42.879Z,8.36
2023-11-01T02:18:45.036Z,8.36
2023-11-01T02:23:47.380Z,8.36
2023-11-01T02:28:51.712Z,8.38
2023-11-01T02:33:53.599Z,8.36
2023-11-01T02:38:55.978Z,8.37
2023-11-01T02:43:57.813Z,8.35
2023-11-01T02:49:00.328Z,8.37
2023-11-01T02:54:04.633Z,8.37
2023-11-01T02:59:06.437Z,8.37
2023-11-01T03:04:08.251Z,8.39
2023-11-01T03:09:12.335Z,8.41
2023-11-01T03:14:14.275Z,8.39
2023-11-01T03:19:18.629Z,8.37
2023-11-01T03:24:22.671Z,8.39
2023-11-01T03:29:24.941Z,8.39
2023-11-01T03:34:26.861Z,8.41
2023-11-01T03:39:28.670Z,8.40
2023-11-01T03:44:30.547Z,8.40
2023-11-01T03:49:32.459Z,8.41
2023-11-01T03:54:35.117Z,8.41
2023-11-01T03:59:37.094Z,8.41
2023-11-01T04:04:38.917Z,8.39
2023-11-01T04:09:42.949Z,8.40
2023-11-01T04:14:44.773Z,8.42
2023-11-01T04:19:46.755Z,8.43
2023-11-01T04:24:48.568Z,8.45
2023-11-01T04:29:55.384Z,8.44
2023-11-01T04:34:59.997Z,8.46
2023-11-01T04:40:04.175Z,8.49
2023-11-01T04:45:07.650Z,8.52
2023-11-01T04:50:12.363Z,8.53
2023-11-01T04:55:14.320Z,8.53
2023-11-01T05:00:17.918Z,8.54
2023-11-01T05:05:20.031Z,8.56
2023-11-01T05:10:21.869Z,8.59
2023-11-01T05:15:23.653Z,8.61
2023-11-01T05:20:25.911Z,8.65
2023-11-01T05:25:30.536Z,8.68
2023-11-01T05:30:32.706Z,8.69
2023-11-01T05:35:38.072Z,8.73
2023-11-01T05:40:40.489Z,8.77
2023-11-01T05:45:42.344Z,8.80
2023-11-01T05:50:47.369Z,8.84
2023-11-01T06:00:58.596Z,8.91
2023-11-01T06:06:02.939Z,9.01
2023-11-01T06:11:05.359Z,9.08
2023-11-01T06:16:09.919Z,9.34
2023-11-01T06:21:15.578Z,9.41
2023-11-01T06:26:22.078Z,9.35
2023-11-01T06:31:26.124Z,9.32
2023-11-01T06:36:28.224Z,9.31
2023-11-01T06:41:30.193Z,9.31
2023-11-01T06:46:32.090Z,9.32
2023-11-01T06:51:34.136Z,9.35
2023-11-01T06:56:36.007Z,9.39
2023-11-01T07:01:37.833Z,9.44
2023-11-01T07:06:39.813Z,9.48
2023-11-01T07:11:41.694Z,9.51
2023-11-01T07:16:46.720Z,9.54
2023-11-01T07:21:50.735Z,9.58
2023-11-01T07:26:55.358Z,9.66
2023-11-01T07:31:59.527Z,9.75
2023-11-01T07:37:01.434Z,9.82
2023-11-01T07:42:08.121Z,9.83
2023-11-01T07:47:09.995Z,9.88
2023-11-01T07:52:11.879Z,9.95
2023-11-01T07:57:13.765Z,10.02
2023-11-01T08:02:15.689Z,10.07
2023-11-01T08:07:18.035Z,10.13
2023-11-01T08:12:22.979Z,10.16
2023-11-01T08:17:24.837Z,10.22
2023-11-01T08:22:27.121Z,10.30
2023-11-01T08:27:29.806Z,10.52
2023-11-01T08:32:34.030Z,10.66
2023-11-01T08:37:36.821Z,10.77
2023-11-01T08:42:38.676Z,10.74
2023-11-01T08:47:44.164Z,10.76
2023-11-01T08:52:46.737Z,10.78
2023-11-01T08:57:48.594Z,10.82
2023-11-01T09:02:50.578Z,10.83
2023-11-01T09:07:52.498Z,10.84
2023-11-01T09:12:57.590Z,10.85
2023-11-01T09:18:01.831Z,10.89
2023-11-01T09:23:04.296Z,10.91
2023-11-01T09:28:08.335Z,11.03
2023-11-01T09:33:10.307Z,11.16
2023-11-01T09:38:12.301Z,11.19
2023-11-01T09:43:21.384Z,11.22
2023-11-01T09:48:24.136Z,11.25
2023-11-01T09:53:26.228Z,11.21
2023-11-01T09:58:30.356Z,11.23
2023-11-01T10:03:34.622Z,11.23
2023-11-01T10:08:36.762Z,11.22
2023-11-01T10:13:38.652Z,11.21
2023-11-01T10:18:41.209Z,11.22
2023-11-01T10:23:45.471Z,11.25
2023-11-01T10:28:47.380Z,11.25
2023-11-01T10:33:51.532Z,11.22
2023-11-01T10:38:57.494Z,11.21
2023-11-01T10:43:59.568Z,11.23
2023-11-01T10:49:05.277Z,11.24
2023-11-01T10:54:11.358Z,11.30
2023-11-01T10:59:36.006Z,11.34
2023-11-01T11:05:08.212Z,11.37
2023-11-01T11:10:35.851Z,11.41
2023-11-01T11:15:50.038Z,11.43
2023-11-01T11:20:57.084Z,11.47
2023-11-01T11:26:00.315Z,11.53
2023-11-01T11:31:06.713Z,11.53
2023-11-01T11:36:16.806Z,11.60
2023-11-01T11:41:25.664Z,11.61
2023-11-01T11:46:34.770Z,11.71
2023-11-01T11:51:37.866Z,11.86
2023-11-01T11:56:40.459Z,12.04
2023-11-01T12:01:42.390Z,12.25
2023-11-01T12:06:55.223Z,12.40
2023-11-01T12:12:10.303Z,12.36
2023-11-01T12:17:12.507Z,12.35
2023-11-01T12:22:15.582Z,12.29
2023-11-01T12:27:19.349Z,12.28
2023-11-01T12:32:28.470Z,12.47
2023-11-01T12:37:34.973Z,12.61
2023-11-01T12:42:38.506Z,12.66
2023-11-01T12:47:50.265Z,12.71
2023-11-01T12:52:52.633Z,12.79
2023-11-01T12:58:02.490Z,12.86
2023-11-01T13:03:04.684Z,12.82
2023-11-01T13:08:09.732Z,12.74
2023-11-01T13:13:16.196Z,12.76
2023-11-01T13:18:18.093Z,12.76
2023-11-01T13:23:20.252Z,12.87
2023-11-01T13:28:24.404Z,13.07
2023-11-01T13:33:26.315Z,13.23
2023-11-01T13:38:28.180Z,13.28
2023-11-01T13:43:30.139Z,13.29
2023-11-01T13:48:32.560Z,13.30
2023-11-01T13:53:34.609Z,13.19
2023-11-01T13:58:41.335Z,13.09
2023-11-01T14:03:44.234Z,13.06
2023-11-01T14:08:51.064Z,13.04
2023-11-01T14:13:56.363Z,13.06
2023-11-01T14:18:58.371Z,13.04
2023-11-01T14:24:00.251Z,13.02
2023-11-01T14:29:04.755Z,13.06
2023-11-01T14:34:06.854Z,13.02
2023-11-01T14:39:11.262Z,12.99
2023-11-01T14:44:13.408Z,12.99
2023-11-01T14:49:15.674Z,13.03
2023-11-01T14:54:17.886Z,13.06
2023-11-01T14:59:20.276Z,13.09
2023-11-01T15:04:22.769Z,13.12
2023-11-01T15:09:24.957Z,13.06
2023-11-01T15:14:27.010Z,12.95
2023-11-01T15:19:29.131Z,12.86
2023-11-01T15:24:31.309Z,12.74
2023-11-01T15:29:35.866Z,12.60
2023-11-01T15:34:39.120Z,12.50
2023-11-01T15:39:43.553Z,12.42
2023-11-01T15:44:45.899Z,12.56
2023-11-01T15:49:47.986Z,12.42
2023-11-01T15:54:52.984Z,12.34
2023-11-01T15:59:54.924Z,12.25
2023-11-01T16:05:01.877Z,12.18
2023-11-01T16:10:04.277Z,12.13
2023-11-01T16:15:14.873Z,12.13
2023-11-01T16:20:16.996Z,12.14
2023-11-01T16:25:21.288Z,12.17
2023-11-01T16:30:23.646Z,12.18
2023-11-01T16:35:26.950Z,12.16
2023-11-01T16:40:29.271Z,12.16
2023-11-01T16:45:35.768Z,12.16
2023-11-01T16:50:40.124Z,12.19
2023-11-01T16:55:42.114Z,12.18
2023-11-01T17:00:44.050Z,12.21
2023-11-01T17:05:46.083Z,12.22
2023-11-01T17:10:50.343Z,12.21
2023-11-01T17:15:57.160Z,12.23
2023-11-01T17:21:04.902Z,12.22
2023-11-01T17:26:26.288Z,12.54
2023-11-01T17:31:42.520Z,12.44
2023-11-01T17:36:44.521Z,12.40
2023-11-01T17:41:53.309Z,12.38
2023-11-01T17:47:09.074Z,12.40
2023-11-01T17:52:15.264Z,12.40
2023-11-01T17:57:19.362Z,12.39
2023-11-01T18:02:28.073Z,12.41
2023-11-01T18:07:32.739Z,12.45
2023-11-01T18:12:36.974Z,12.45
2023-11-01T18:17:39.277Z,12.41
2023-11-01T18:22:42.432Z,12.43
2023-11-01T18:27:46.604Z,12.41
2023-11-01T18:32:48.904Z,12.43
2023-11-01T18:37:52.814Z,12.45
2023-11-01T18:42:58.757Z,12.45
2023-11-01T18:48:00.765Z,12.45
2023-11-01T18:53:06.063Z,12.44
2023-11-01T18:58:08.089Z,12.44
2023-11-01T19:03:12.056Z,12.47
2023-11-01T19:08:21.846Z,12.44
2023-11-01T19:13:24.641Z,12.46
2023-11-01T19:18:26.712Z,12.44
2023-11-01T19:23:29.073Z,12.42
2023-11-01T19:28:32.059Z,12.45
2023-11-01T19:33:34.504Z,12.46
2023-11-01T19:38:45.052Z,12.50
2023-11-01T19:43:47.283Z,12.50
2023-11-01T19:48:52.243Z,12.51
2023-11-01T19:53:54.345Z,12.52
2023-11-01T19:59:13.587Z,12.50
2023-11-01T20:04:36.391Z,12.46
2023-11-01T20:09:51.214Z,12.44
2023-11-01T20:14:59.514Z,12.39
2023-11-01T20:20:07.998Z,12.37
2023-11-01T20:25:12.014Z,12.34
2023-11-01T20:30:16.996Z,12.33
2023-11-01T20:35:18.966Z,12.32
2023-11-01T20:40:23.228Z,12.31
2023-11-01T20:45:31.643Z,12.31
2023-11-01T20:50:33.712Z,12.31
2023-11-01T20:55:39.210Z,12.24
2023-11-01T21:00:44.330Z,12.19
2023-11-01T21:05:48.704Z,12.16
2023-11-01T21:10:50.694Z,12.16
2023-11-01T21:15:58.495Z,12.24
2023-11-01T21:21:02.020Z,12.44
2023-11-01T21:26:09.181Z,12.28
2023-11-01T21:31:13.700Z,12.09
2023-11-01T21:36:15.558Z,12.00
2023-11-01T21:41:17.557Z,11.94
2023-11-01T21:46:19.656Z,11.83
2023-11-01T21:51:24.525Z,11.69
2023-11-01T21:56:33.580Z,11.52
2023-11-01T22:01:35.888Z,11.42
2023-11-01T22:06:38.114Z,11.30
2023-11-01T22:11:46.110Z,11.22
2023-11-01T22:16:48.105Z,11.08
2023-11-01T22:21:52.509Z,11.01
2023-11-01T22:26:58.581Z,10.98
2023-11-01T22:32:05.005Z,11.11
2023-11-01T22:37:06.886Z,11.06
2023-11-01T22:42:34.354Z,10.99
2023-11-01T22:47:38.650Z,10.90
2023-11-01T22:52:42.898Z,10.95
2023-11-01T22:57:47.768Z,10.87
2023-11-01T23:02:54.482Z,10.75
2023-11-01T23:07:57.496Z,10.70
2023-11-01T23:13:01.644Z,10.63
2023-11-01T23:18:04.594Z,10.52
2023-11-01T23:23:06.505Z,10.46
2023-11-01T23:28:26.889Z,10.41
2023-11-01T23:33:38.708Z,10.38
2023-11-01T23:38:45.413Z,10.30
2023-11-01T23:43:47.389Z,10.29
2023-11-01T23:48:50.817Z,10.26
2023-11-01T23:53:55.050Z,10.19
2023-11-01T23:58:56.978Z,10.18
